sensor_id;sensor_type;location;lat;lon;timestamp;P1;durP1;ratioP1;P2;durP2;ratioP2
30613;SDS011;17381;51.690;5.270;2023-04-01T00:22:51;7.55;;;5.97;;
30613;SDS011;17381;51.690;5.270;2023-04-01T00:26:12;9.88;;;6.38;;
30613;SDS011;17381;51.690;5.270;2023-04-01T00:29:32;8.93;;;6.28;;
30613;SDS011;17381;51.690;5.270;2023-04-01T00:33:03;7.80;;;5.18;;
30613;SDS011;17381;51.690;5.270;2023-04-01T00:35:56;9.00;;;5.35;;
30613;SDS011;17381;51.690;5.270;2023-04-01T00:38:53;11.68;;;5.95;;
30613;SDS011;17381;51.690;5.270;2023-04-01T00:41:57;8.73;;;6.07;;
30613;SDS011;17381;51.690;5.270;2023-04-01T00:44:36;7.32;;;5.75;;
30613;SDS011;17381;51.690;5.270;2023-04-01T00:47:25;8.75;;;4.90;;
30613;SDS011;17381;51.690;5.270;2023-04-01T00:50:44;6.47;;;4.80;;
30613;SDS011;17381;51.690;5.270;2023-04-01T00:56:43;6.65;;;5.05;;
30613;SDS011;17381;51.690;5.270;2023-04-01T00:59:36;7.73;;;4.67;;
30613;SDS011;17381;51.690;5.270;2023-04-01T01:02:37;8.60;;;4.45;;
30613;SDS011;17381;51.690;5.270;2023-04-01T01:05:17;6.93;;;4.35;;
30613;SDS011;17381;51.690;5.270;2023-04-01T01:11:26;6.82;;;3.60;;
30613;SDS011;17381;51.690;5.270;2023-04-01T01:14:26;8.48;;;5.00;;
30613;SDS011;17381;51.690;5.270;2023-04-01T01:26:39;5.53;;;2.95;;
30613;SDS011;17381;51.690;5.270;2023-04-01T01:29:25;5.53;;;1.95;;
30613;SDS011;17381;51.690;5.270;2023-04-01T01:35:49;4.50;;;1.98;;
30613;SDS011;17381;51.690;5.270;2023-04-01T01:38:24;7.10;;;2.20;;
30613;SDS011;17381;51.690;5.270;2023-04-01T01:41:06;5.75;;;2.10;;
30613;SDS011;17381;51.690;5.270;2023-04-01T01:43:49;8.38;;;2.15;;
30613;SDS011;17381;51.690;5.270;2023-04-01T01:46:33;4.57;;;2.08;;
30613;SDS011;17381;51.690;5.270;2023-04-01T01:49:16;4.78;;;2.00;;
30613;SDS011;17381;51.690;5.270;2023-04-01T01:51:52;4.57;;;1.80;;
30613;SDS011;17381;51.690;5.270;2023-04-01T01:54:25;2.88;;;1.65;;
30613;SDS011;17381;51.690;5.270;2023-04-01T01:57:07;5.00;;;1.73;;
30613;SDS011;17381;51.690;5.270;2023-04-01T01:59:50;6.25;;;1.33;;
30613;SDS011;17381;51.690;5.270;2023-04-01T02:02:25;5.63;;;1.65;;
30613;SDS011;17381;51.690;5.270;2023-04-01T02:04:59;4.47;;;1.50;;
30613;SDS011;17381;51.690;5.270;2023-04-01T02:07:44;3.10;;;1.50;;
30613;SDS011;17381;51.690;5.270;2023-04-01T02:10:25;2.13;;;1.00;;
30613;SDS011;17381;51.690;5.270;2023-04-01T02:13:05;4.18;;;1.40;;
30613;SDS011;17381;51.690;5.270;2023-04-01T02:15:47;4.05;;;2.10;;
30613;SDS011;17381;51.690;5.270;2023-04-01T02:18:30;4.47;;;1.70;;
30613;SDS011;17381;51.690;5.270;2023-04-01T02:21:05;3.58;;;1.98;;
30613;SDS011;17381;51.690;5.270;2023-04-01T02:23:45;4.60;;;1.77;;
30613;SDS011;17381;51.690;5.270;2023-04-01T02:26:15;6.97;;;3.00;;
30613;SDS011;17381;51.690;5.270;2023-04-01T02:28:59;7.53;;;2.38;;
30613;SDS011;17381;51.690;5.270;2023-04-01T02:31:48;9.98;;;3.38;;
30613;SDS011;17381;51.690;5.270;2023-04-01T02:34:19;5.78;;;2.58;;
30613;SDS011;17381;51.690;5.270;2023-04-01T02:37:07;6.80;;;3.08;;
30613;SDS011;17381;51.690;5.270;2023-04-01T02:39:39;6.55;;;3.10;;
30613;SDS011;17381;51.690;5.270;2023-04-01T02:42:13;4.85;;;2.53;;
30613;SDS011;17381;51.690;5.270;2023-04-01T02:44:44;4.97;;;2.10;;
30613;SDS011;17381;51.690;5.270;2023-04-01T02:47:22;4.00;;;1.77;;
30613;SDS011;17381;51.690;5.270;2023-04-01T02:50:03;6.43;;;2.45;;
30613;SDS011;17381;51.690;5.270;2023-04-01T02:52:30;3.67;;;1.60;;
30613;SDS011;17381;51.690;5.270;2023-04-01T02:55:01;3.65;;;1.70;;
30613;SDS011;17381;51.690;5.270;2023-04-01T02:57:34;6.03;;;2.00;;
30613;SDS011;17381;51.690;5.270;2023-04-01T03:00:06;6.22;;;2.25;;
30613;SDS011;17381;51.690;5.270;2023-04-01T03:02:53;6.63;;;2.23;;
30613;SDS011;17381;51.690;5.270;2023-04-01T03:05:22;4.57;;;2.05;;
30613;SDS011;17381;51.690;5.270;2023-04-01T03:07:57;6.18;;;2.08;;
30613;SDS011;17381;51.690;5.270;2023-04-01T03:10:32;4.57;;;2.00;;
30613;SDS011;17381;51.690;5.270;2023-04-01T03:13:07;4.18;;;2.20;;
30613;SDS011;17381;51.690;5.270;2023-04-01T03:15:44;5.10;;;2.33;;
30613;SDS011;17381;51.690;5.270;2023-04-01T03:18:15;5.03;;;2.65;;
30613;SDS011;17381;51.690;5.270;2023-04-01T03:20:49;5.97;;;2.83;;
30613;SDS011;17381;51.690;5.270;2023-04-01T03:23:26;5.03;;;3.10;;
30613;SDS011;17381;51.690;5.270;2023-04-01T03:26:19;4.55;;;3.10;;
30613;SDS011;17381;51.690;5.270;2023-04-01T03:28:55;6.35;;;3.40;;
30613;SDS011;17381;51.690;5.270;2023-04-01T03:31:21;8.70;;;4.38;;
30613;SDS011;17381;51.690;5.270;2023-04-01T03:33:54;8.23;;;4.32;;
30613;SDS011;17381;51.690;5.270;2023-04-01T03:36:37;7.88;;;4.30;;
30613;SDS011;17381;51.690;5.270;2023-04-01T03:39:17;8.27;;;4.63;;
30613;SDS011;17381;51.690;5.270;2023-04-01T03:42:00;9.80;;;5.10;;
30613;SDS011;17381;51.690;5.270;2023-04-01T03:44:46;9.02;;;5.28;;
30613;SDS011;17381;51.690;5.270;2023-04-01T03:47:31;10.63;;;5.43;;
30613;SDS011;17381;51.690;5.270;2023-04-01T03:50:03;7.97;;;4.72;;
30613;SDS011;17381;51.690;5.270;2023-04-01T03:52:33;10.27;;;5.28;;
30613;SDS011;17381;51.690;5.270;2023-04-01T03:55:15;15.32;;;4.38;;
30613;SDS011;17381;51.690;5.270;2023-04-01T03:57:55;7.75;;;3.63;;
30613;SDS011;17381;51.690;5.270;2023-04-01T04:00:30;8.70;;;4.38;;
30613;SDS011;17381;51.690;5.270;2023-04-01T04:03:02;7.75;;;4.30;;
30613;SDS011;17381;51.690;5.270;2023-04-01T04:05:36;6.60;;;3.65;;
30613;SDS011;17381;51.690;5.270;2023-04-01T04:08:05;7.18;;;3.78;;
30613;SDS011;17381;51.690;5.270;2023-04-01T04:10:37;5.63;;;3.35;;
30613;SDS011;17381;51.690;5.270;2023-04-01T04:13:24;7.65;;;3.75;;
30613;SDS011;17381;51.690;5.270;2023-04-01T04:16:03;6.13;;;3.40;;
30613;SDS011;17381;51.690;5.270;2023-04-01T04:18:36;7.28;;;4.03;;
30613;SDS011;17381;51.690;5.270;2023-04-01T04:21:15;7.05;;;3.35;;
30613;SDS011;17381;51.690;5.270;2023-04-01T04:23:58;5.93;;;3.25;;
30613;SDS011;17381;51.690;5.270;2023-04-01T04:26:58;8.02;;;3.83;;
30613;SDS011;17381;51.690;5.270;2023-04-01T04:29:41;5.47;;;3.35;;
30613;SDS011;17381;51.690;5.270;2023-04-01T04:32:19;5.45;;;3.22;;
30613;SDS011;17381;51.690;5.270;2023-04-01T04:34:58;6.63;;;4.00;;
30613;SDS011;17381;51.690;5.270;2023-04-01T04:37:32;5.75;;;3.25;;
30613;SDS011;17381;51.690;5.270;2023-04-01T04:40:01;6.10;;;4.20;;
30613;SDS011;17381;51.690;5.270;2023-04-01T04:42:46;7.43;;;4.25;;
30613;SDS011;17381;51.690;5.270;2023-04-01T04:48:26;9.93;;;5.97;;
30613;SDS011;17381;51.690;5.270;2023-04-01T04:50:55;9.95;;;5.65;;
30613;SDS011;17381;51.690;5.270;2023-04-01T04:53:35;11.95;;;6.35;;
30613;SDS011;17381;51.690;5.270;2023-04-01T04:56:07;11.45;;;6.85;;
30613;SDS011;17381;51.690;5.270;2023-04-01T04:58:54;9.35;;;5.90;;
30613;SDS011;17381;51.690;5.270;2023-04-01T05:01:45;9.15;;;6.60;;
30613;SDS011;17381;51.690;5.270;2023-04-01T05:04:18;9.80;;;6.25;;
30613;SDS011;17381;51.690;5.270;2023-04-01T05:06:50;14.40;;;7.47;;
30613;SDS011;17381;51.690;5.270;2023-04-01T05:09:38;10.55;;;6.32;;
30613;SDS011;17381;51.690;5.270;2023-04-01T05:12:13;9.88;;;6.55;;
30613;SDS011;17381;51.690;5.270;2023-04-01T05:14:58;8.75;;;6.05;;
30613;SDS011;17381;51.690;5.270;2023-04-01T05:17:36;8.35;;;6.10;;
30613;SDS011;17381;51.690;5.270;2023-04-01T05:20:05;12.70;;;7.40;;
30613;SDS011;17381;51.690;5.270;2023-04-01T05:22:46;10.98;;;7.72;;
30613;SDS011;17381;51.690;5.270;2023-04-01T05:25:15;11.57;;;7.40;;
30613;SDS011;17381;51.690;5.270;2023-04-01T05:27:54;16.85;;;8.95;;
30613;SDS011;17381;51.690;5.270;2023-04-01T05:30:23;15.13;;;9.13;;
30613;SDS011;17381;51.690;5.270;2023-04-01T05:33:26;14.63;;;10.05;;
30613;SDS011;17381;51.690;5.270;2023-04-01T05:36:11;19.65;;;11.23;;
30613;SDS011;17381;51.690;5.270;2023-04-01T05:38:54;19.65;;;10.93;;
30613;SDS011;17381;51.690;5.270;2023-04-01T05:41:36;20.15;;;11.88;;
30613;SDS011;17381;51.690;5.270;2023-04-01T05:44:15;20.35;;;11.50;;
30613;SDS011;17381;51.690;5.270;2023-04-01T05:47:07;21.45;;;11.13;;
30613;SDS011;17381;51.690;5.270;2023-04-01T05:49:44;20.23;;;11.40;;
30613;SDS011;17381;51.690;5.270;2023-04-01T05:52:19;22.00;;;12.68;;
30613;SDS011;17381;51.690;5.270;2023-04-01T05:54:54;22.13;;;12.15;;
30613;SDS011;17381;51.690;5.270;2023-04-01T05:57:26;21.13;;;11.57;;
30613;SDS011;17381;51.690;5.270;2023-04-01T06:00:01;25.13;;;12.52;;
30613;SDS011;17381;51.690;5.270;2023-04-01T06:02:44;22.52;;;12.10;;
30613;SDS011;17381;51.690;5.270;2023-04-01T06:05:24;24.63;;;12.00;;
30613;SDS011;17381;51.690;5.270;2023-04-01T06:08:36;24.33;;;11.90;;
30613;SDS011;17381;51.690;5.270;2023-04-01T06:14:13;24.58;;;11.75;;
30613;SDS011;17381;51.690;5.270;2023-04-01T06:17:34;26.05;;;11.80;;
30613;SDS011;17381;51.690;5.270;2023-04-01T06:26:10;22.23;;;11.20;;
30613;SDS011;17381;51.690;5.270;2023-04-01T06:32:06;24.70;;;11.32;;
30613;SDS011;17381;51.690;5.270;2023-04-01T06:41:01;28.17;;;13.68;;
30613;SDS011;17381;51.690;5.270;2023-04-01T06:44:08;30.98;;;14.88;;
30613;SDS011;17381;51.690;5.270;2023-04-01T06:47:35;23.77;;;12.32;;
30613;SDS011;17381;51.690;5.270;2023-04-01T06:57:15;25.40;;;11.77;;
30613;SDS011;17381;51.690;5.270;2023-04-01T07:00:04;28.55;;;12.73;;
30613;SDS011;17381;51.690;5.270;2023-04-01T07:03:00;23.77;;;11.77;;
30613;SDS011;17381;51.690;5.270;2023-04-01T07:05:46;17.67;;;9.93;;
30613;SDS011;17381;51.690;5.270;2023-04-01T07:08:33;18.23;;;9.75;;
30613;SDS011;17381;51.690;5.270;2023-04-01T07:11:21;19.25;;;10.30;;
30613;SDS011;17381;51.690;5.270;2023-04-01T07:14:51;22.83;;;11.05;;
30613;SDS011;17381;51.690;5.270;2023-04-01T07:17:57;20.27;;;11.25;;
30613;SDS011;17381;51.690;5.270;2023-04-01T07:20:59;17.23;;;10.00;;
30613;SDS011;17381;51.690;5.270;2023-04-01T07:23:39;20.20;;;9.63;;
30613;SDS011;17381;51.690;5.270;2023-04-01T07:26:34;19.45;;;10.07;;
30613;SDS011;17381;51.690;5.270;2023-04-01T07:29:21;16.50;;;8.27;;
30613;SDS011;17381;51.690;5.270;2023-04-01T07:32:21;20.77;;;9.88;;
30613;SDS011;17381;51.690;5.270;2023-04-01T07:34:56;18.75;;;9.02;;
30613;SDS011;17381;51.690;5.270;2023-04-01T07:37:50;18.80;;;9.20;;
30613;SDS011;17381;51.690;5.270;2023-04-01T07:41:09;24.15;;;10.30;;
30613;SDS011;17381;51.690;5.270;2023-04-01T07:44:14;18.73;;;10.27;;
30613;SDS011;17381;51.690;5.270;2023-04-01T07:56:15;21.60;;;12.02;;
30613;SDS011;17381;51.690;5.270;2023-04-01T08:05:25;24.33;;;12.55;;
30613;SDS011;17381;51.690;5.270;2023-04-01T08:08:13;22.65;;;12.55;;
30613;SDS011;17381;51.690;5.270;2023-04-01T08:11:57;20.90;;;11.60;;
30613;SDS011;17381;51.690;5.270;2023-04-01T08:18:15;20.23;;;11.03;;
30613;SDS011;17381;51.690;5.270;2023-04-01T08:21:16;23.75;;;13.35;;
30613;SDS011;17381;51.690;5.270;2023-04-01T08:24:27;22.48;;;12.75;;
30613;SDS011;17381;51.690;5.270;2023-04-01T08:27:34;20.92;;;11.95;;
30613;SDS011;17381;51.690;5.270;2023-04-01T08:32:52;20.27;;;11.52;;
30613;SDS011;17381;51.690;5.270;2023-04-01T08:35:43;17.30;;;10.75;;
30613;SDS011;17381;51.690;5.270;2023-04-01T08:38:23;17.52;;;11.63;;
30613;SDS011;17381;51.690;5.270;2023-04-01T08:44:13;20.40;;;10.30;;
30613;SDS011;17381;51.690;5.270;2023-04-01T08:46:56;19.48;;;10.48;;
30613;SDS011;17381;51.690;5.270;2023-04-01T08:57:06;16.73;;;8.48;;
30613;SDS011;17381;51.690;5.270;2023-04-01T09:05:32;14.35;;;9.13;;
30613;SDS011;17381;51.690;5.270;2023-04-01T09:19:33;17.35;;;9.30;;
30613;SDS011;17381;51.690;5.270;2023-04-01T09:22:41;18.20;;;8.20;;
30613;SDS011;17381;51.690;5.270;2023-04-01T09:26:06;17.70;;;8.85;;
30613;SDS011;17381;51.690;5.270;2023-04-01T09:28:44;12.02;;;7.60;;
30613;SDS011;17381;51.690;5.270;2023-04-01T09:37:34;14.98;;;7.80;;
30613;SDS011;17381;51.690;5.270;2023-04-01T09:59:36;7.78;;;5.18;;
30613;SDS011;17381;51.690;5.270;2023-04-01T10:08:28;10.13;;;5.93;;
30613;SDS011;17381;51.690;5.270;2023-04-01T10:18:09;9.02;;;5.93;;
30613;SDS011;17381;51.690;5.270;2023-04-01T10:21:04;8.73;;;5.82;;
30613;SDS011;17381;51.690;5.270;2023-04-01T10:51:19;11.48;;;6.70;;
30613;SDS011;17381;51.690;5.270;2023-04-01T11:00:32;11.35;;;7.00;;
30613;SDS011;17381;51.690;5.270;2023-04-01T11:10:52;11.27;;;6.75;;
30613;SDS011;17381;51.690;5.270;2023-04-01T11:28:42;9.10;;;5.57;;
30613;SDS011;17381;51.690;5.270;2023-04-01T11:31:23;9.35;;;5.05;;
30613;SDS011;17381;51.690;5.270;2023-04-01T11:50:25;6.53;;;3.47;;
30613;SDS011;17381;51.690;5.270;2023-04-01T12:16:32;7.97;;;3.97;;
30613;SDS011;17381;51.690;5.270;2023-04-01T12:19:29;5.95;;;3.60;;
30613;SDS011;17381;51.690;5.270;2023-04-01T12:42:42;9.02;;;3.63;;
30613;SDS011;17381;51.690;5.270;2023-04-01T13:02:45;5.88;;;3.35;;
30613;SDS011;17381;51.690;5.270;2023-04-01T13:28:16;8.05;;;5.13;;
30613;SDS011;17381;51.690;5.270;2023-04-01T13:31:09;10.27;;;5.85;;
30613;SDS011;17381;51.690;5.270;2023-04-01T13:37:03;9.77;;;4.50;;
30613;SDS011;17381;51.690;5.270;2023-04-01T13:42:44;10.07;;;5.85;;
30613;SDS011;17381;51.690;5.270;2023-04-01T13:51:17;8.23;;;4.38;;
30613;SDS011;17381;51.690;5.270;2023-04-01T14:10:40;9.88;;;5.28;;
30613;SDS011;17381;51.690;5.270;2023-04-01T14:13:32;10.50;;;6.05;;
30613;SDS011;17381;51.690;5.270;2023-04-01T14:49:37;13.50;;;7.60;;
30613;SDS011;17381;51.690;5.270;2023-04-01T14:52:28;13.55;;;7.10;;
30613;SDS011;17381;51.690;5.270;2023-04-01T15:01:17;13.25;;;7.57;;
30613;SDS011;17381;51.690;5.270;2023-04-01T15:04:35;13.23;;;6.57;;
30613;SDS011;17381;51.690;5.270;2023-04-01T15:28:27;12.10;;;7.45;;
30613;SDS011;17381;51.690;5.270;2023-04-01T15:31:28;14.07;;;7.60;;
30613;SDS011;17381;51.690;5.270;2023-04-01T15:34:28;13.00;;;7.17;;
30613;SDS011;17381;51.690;5.270;2023-04-01T15:37:07;11.40;;;6.60;;
30613;SDS011;17381;51.690;5.270;2023-04-01T15:46:36;11.75;;;7.63;;
30613;SDS011;17381;51.690;5.270;2023-04-01T15:52:40;19.20;;;9.40;;
30613;SDS011;17381;51.690;5.270;2023-04-01T15:55:45;15.50;;;8.63;;
30613;SDS011;17381;51.690;5.270;2023-04-01T16:18:06;13.50;;;7.88;;
30613;SDS011;17381;51.690;5.270;2023-04-01T16:21:07;14.10;;;8.13;;
30613;SDS011;17381;51.690;5.270;2023-04-01T16:34:20;13.93;;;8.25;;
30613;SDS011;17381;51.690;5.270;2023-04-01T16:37:40;9.77;;;6.43;;
30613;SDS011;17381;51.690;5.270;2023-04-01T16:44:28;12.30;;;7.13;;
30613;SDS011;17381;51.690;5.270;2023-04-01T16:47:40;10.55;;;6.03;;
30613;SDS011;17381;51.690;5.270;2023-04-01T16:54:17;7.10;;;4.63;;
30613;SDS011;17381;51.690;5.270;2023-04-01T17:00:39;9.77;;;6.00;;
30613;SDS011;17381;51.690;5.270;2023-04-01T17:04:21;9.63;;;6.18;;
30613;SDS011;17381;51.690;5.270;2023-04-01T17:25:31;5.43;;;3.90;;
30613;SDS011;17381;51.690;5.270;2023-04-01T17:29:06;7.78;;;4.90;;
30613;SDS011;17381;51.690;5.270;2023-04-01T17:42:06;11.65;;;7.50;;
30613;SDS011;17381;51.690;5.270;2023-04-01T17:44:51;17.05;;;10.45;;
30613;SDS011;17381;51.690;5.270;2023-04-01T17:56:04;10.20;;;7.22;;
30613;SDS011;17381;51.690;5.270;2023-04-01T18:16:07;8.57;;;5.70;;
30613;SDS011;17381;51.690;5.270;2023-04-01T18:22:39;12.20;;;9.02;;
30613;SDS011;17381;51.690;5.270;2023-04-01T18:28:33;10.27;;;7.22;;
30613;SDS011;17381;51.690;5.270;2023-04-01T18:31:41;13.65;;;7.28;;
30613;SDS011;17381;51.690;5.270;2023-04-01T18:34:59;11.45;;;7.70;;
30613;SDS011;17381;51.690;5.270;2023-04-01T18:37:54;8.63;;;6.60;;
30613;SDS011;17381;51.690;5.270;2023-04-01T18:40:35;9.50;;;7.18;;
30613;SDS011;17381;51.690;5.270;2023-04-01T18:43:20;12.13;;;8.25;;
30613;SDS011;17381;51.690;5.270;2023-04-01T18:46:25;12.68;;;8.65;;
30613;SDS011;17381;51.690;5.270;2023-04-01T18:49:34;10.52;;;7.95;;
30613;SDS011;17381;51.690;5.270;2023-04-01T18:58:37;12.40;;;8.23;;
30613;SDS011;17381;51.690;5.270;2023-04-01T19:06:54;13.57;;;8.73;;
30613;SDS011;17381;51.690;5.270;2023-04-01T19:09:48;11.02;;;7.78;;
30613;SDS011;17381;51.690;5.270;2023-04-01T19:21:29;8.82;;;6.78;;
30613;SDS011;17381;51.690;5.270;2023-04-01T19:24:09;10.45;;;7.00;;
30613;SDS011;17381;51.690;5.270;2023-04-01T19:27:53;10.13;;;7.35;;
30613;SDS011;17381;51.690;5.270;2023-04-01T19:33:28;10.05;;;7.60;;
30613;SDS011;17381;51.690;5.270;2023-04-01T19:56:31;9.95;;;7.45;;
30613;SDS011;17381;51.690;5.270;2023-04-01T19:59:14;9.27;;;7.15;;
30613;SDS011;17381;51.690;5.270;2023-04-01T20:05:22;10.00;;;6.90;;
30613;SDS011;17381;51.690;5.270;2023-04-01T20:10:47;9.55;;;6.78;;
30613;SDS011;17381;51.690;5.270;2023-04-01T20:17:08;8.18;;;6.47;;
30613;SDS011;17381;51.690;5.270;2023-04-01T20:19:26;8.10;;;6.20;;
30613;SDS011;17381;51.690;5.270;2023-04-01T20:22:28;7.25;;;5.70;;
30613;SDS011;17381;51.690;5.270;2023-04-01T20:32:06;8.80;;;6.95;;
30613;SDS011;17381;51.690;5.270;2023-04-01T20:51:28;5.65;;;4.38;;
30613;SDS011;17381;51.690;5.270;2023-04-01T20:54:38;5.40;;;3.90;;
30613;SDS011;17381;51.690;5.270;2023-04-01T21:50:55;11.77;;;9.40;;
30613;SDS011;17381;51.690;5.270;2023-04-01T22:14:13;11.98;;;9.38;;
30613;SDS011;17381;51.690;5.270;2023-04-01T22:34:18;12.65;;;10.25;;
30613;SDS011;17381;51.690;5.270;2023-04-01T22:37:38;13.35;;;10.05;;
30613;SDS011;17381;51.690;5.270;2023-04-01T22:40:36;12.38;;;9.65;;
30613;SDS011;17381;51.690;5.270;2023-04-01T22:43:43;15.40;;;10.00;;
30613;SDS011;17381;51.690;5.270;2023-04-01T22:49:20;12.82;;;9.85;;
30613;SDS011;17381;51.690;5.270;2023-04-01T22:52:38;13.13;;;9.57;;
30613;SDS011;17381;51.690;5.270;2023-04-01T22:55:39;13.90;;;10.00;;
30613;SDS011;17381;51.690;5.270;2023-04-01T23:09:25;12.13;;;8.75;;
30613;SDS011;17381;51.690;5.270;2023-04-01T23:12:45;11.63;;;9.13;;
30613;SDS011;17381;51.690;5.270;2023-04-01T23:15:30;11.10;;;8.85;;
30613;SDS011;17381;51.690;5.270;2023-04-01T23:22:34;10.73;;;8.27;;
30613;SDS011;17381;51.690;5.270;2023-04-01T23:25:57;11.98;;;9.13;;
30613;SDS011;17381;51.690;5.270;2023-04-01T23:29:04;11.77;;;8.98;;
30613;SDS011;17381;51.690;5.270;2023-04-01T23:31:56;13.25;;;9.43;;
30613;SDS011;17381;51.690;5.270;2023-04-01T23:34:30;11.35;;;8.18;;
30613;SDS011;17381;51.690;5.270;2023-04-01T23:48:20;11.27;;;8.77;;
